Flight Track Log - Related Links

Times and Time Zones

All times are in EST time to prevent confusion due to time zone crossing. See the FIN666 flight status page for this flight to view local times or setup timezone preferences in your user account.


Time Position Orientation Groundspeed Altitude Reporting Facility
EST Latitude Longitude Course Direction KTS MPH feet Rate Location/Type
Sun 07:31:00 AM 55.9164 13.2747 49° Northeast  Level Estimated
Sun 07:32:00 AM 55.9905 13.4309 50° Northeast  Level Estimated
Sun 07:33:00 AM 56.0644 13.5877 50° Northeast  Level Estimated
Sun 07:34:00 AM 56.1381 13.7451 50° Northeast  Level Estimated
Sun 07:35:00 AM 56.2116 13.9031 50° Northeast  Level Estimated
Sun 07:36:00 AM 56.2850 14.0617 50° Northeast  Level Estimated
Sun 07:37:00 AM 56.3581 14.2208 50° Northeast  Level Estimated
Sun 07:38:00 AM 56.4310 14.3807 50° Northeast  Level Estimated
Sun 07:39:00 AM 56.5037 14.5411 51° Northeast  Level Estimated
Sun 07:40:00 AM 56.5762 14.7021 51° Northeast  Level Estimated
Sun 07:41:00 AM 56.6485 14.8638 51° Northeast  Level Estimated
Sun 07:42:00 AM 56.7206 15.0261 51° Northeast  Level Estimated
Sun 07:43:00 AM 56.7924 15.1890 51° Northeast  Level Estimated
Sun 07:44:00 AM 56.8641 15.3525 51° Northeast  Level Estimated
Sun 07:45:00 AM 56.9355 15.5166 51° Northeast  Level Estimated
Sun 07:46:00 AM 57.0068 15.6814 52° Northeast  Level Estimated
Sun 07:47:00 AM 57.0778 15.8468 52° Northeast  Level Estimated
Sun 07:48:00 AM 57.1486 16.0129 52° Northeast  Level Estimated
Sun 07:49:00 AM 57.2212 16.1845 52° Northeast  Level Estimated
Sun 07:50:00 AM 57.2936 16.3567 52° Northeast  Level Estimated
Sun 07:51:00 AM 57.3658 16.5297 52° Northeast  Level Estimated
Sun 07:52:00 AM 57.4377 16.7033 52° Northeast  Level Estimated
Sun 07:53:00 AM 57.5094 16.8776 53° Northeast  Level Estimated
Sun 07:54:00 AM 57.5809 17.0526 53° Northeast  Level Estimated
Sun 07:55:00 AM 57.6521 17.2283 53° Northeast  Level Estimated
Sun 07:56:00 AM 57.7230 17.4046 53° Northeast  Level Estimated
Sun 07:57:00 AM 57.7938 17.5817 53° Northeast  Level Estimated
Sun 07:58:00 AM 57.8642 17.7595 53° Northeast  Level Estimated
Sun 07:59:00 AM 57.9344 17.9379 53° Northeast  Level Estimated
Sun 08:00:00 AM 58.0044 18.1171 54° Northeast  Level Estimated
Sun 08:01:00 AM 58.0741 18.2969 54° Northeast  Level Estimated
Sun 08:02:00 AM 58.1436 18.4775 54° Northeast  Level Estimated
Sun 08:03:00 AM 58.2128 18.6587 54° Northeast  Level Estimated
Sun 08:04:00 AM 58.2817 18.8407 54° Northeast  Level Estimated
Sun 08:05:00 AM 58.3504 19.0234 54° Northeast  Level Estimated
Sun 08:06:00 AM 58.4189 19.2068 54° Northeast  Level Estimated
Sun 08:07:00 AM 58.4870 19.3909 55° Northeast  Level Estimated
Sun 08:08:00 AM 58.5549 19.5757 55° Northeast  Level Estimated
Sun 08:09:00 AM 58.6226 19.7612 55° Northeast  Level Estimated
Sun 08:10:00 AM 58.6899 19.9474 55° Northeast  Level Estimated
Sun 08:11:00 AM 58.7570 20.1344 55° Northeast  Level Estimated
Sun 08:12:00 AM 58.8239 20.3221 55° Northeast  Level Estimated
Sun 08:13:00 AM 58.8904 20.5105 56° Northeast  Level Estimated
Sun 08:14:00 AM 58.9567 20.6996 56° Northeast  Level Estimated
Sun 08:15:00 AM 59.0227 20.8895 56° Northeast  Level Estimated
Sun 08:16:00 AM 59.0884 21.0801 56° Northeast  Level Estimated
Sun 08:17:00 AM 59.1529 21.2686 56° Northeast  Level Estimated
Sun 08:18:00 AM 59.2171 21.4579 56° Northeast  Level Estimated
Sun 08:19:00 AM 59.2811 21.6479 57° Northeast  Level Estimated
Sun 08:20:00 AM 59.3340 21.8063 57° Northeast  Level Estimated
Sun 08:21:00 AM 59.3868 21.9653 57° Northeast  Level Estimated
Sun 08:22:00 AM 59.4393 22.1248 57° Northeast  Level Estimated
Sun 08:23:00 AM 59.4917 22.2847 57° Northeast  Level Estimated
Sun 08:24:00 AM 59.5439 22.4452 57° Northeast  Level Estimated
Sun 08:25:00 AM 59.5959 22.6061 57° Northeast  Level Estimated
Sun 08:26:00 AM 59.6476 22.7675 58° Northeast  Level Estimated
Sun 08:27:00 AM 59.6992 22.9295 58° Northeast  Level Estimated
Sun 08:28:00 AM 59.7506 23.0919 58° Northeast  Level Estimated
Sun 08:29:00 AM 59.8018 23.2549 58° Northeast  Level Estimated
Sun 08:30:00 AM 59.8527 23.4183 58° Northeast  Level Estimated
Sun 08:31:00 AM 59.9035 23.5822 58° Northeast  Level Estimated
Sun 08:32:00 AM 59.9541 23.7467 58° Northeast  Level Estimated
Sun 08:33:00 AM 60.0044 23.9116 59° Northeast  Level Estimated
Sun 08:34:00 AM 60.0546 24.0770 59° Northeast  Level Estimated
Sun 08:35:00 AM 60.1045 24.2430 59° Northeast  Level Estimated
Sun 08:36:00 AM 60.1543 24.4094 59° Northeast  Level Estimated
Sun 08:37:00 AM 60.2038 24.5764 59° Northeast  Level Estimated
Sun 08:38:00 AM 60.2531 24.7438 59° Northeast  Level Estimated
Sun 08:39:00 AM 60.3022 24.9118 59° Northeast  Level Estimated
Sun 08:40:00 AM 60.3172 24.9633 60° Northeast  Level Estimated
Sun 08:41:00 AM 60.3172 24.9633 37° Northeast  Level Estimated
Sun 08:42:00 AM 60.3172 24.9633 37° Northeast  Level Estimated
Sun 08:43:00 AM 60.3172 24.9633 37° Northeast  Level Estimated
Sun 08:44:00 AM 60.3172 24.9633 37° Northeast  Level Estimated
Sun 08:45:00 AM 60.3172 24.9633 37° Northeast  Level Estimated
Sun 08:46:00 AM 60.3172 24.9633 37° Northeast  Level Estimated
Sun 08:47:00 AM 60.3172 24.9633 37° Northeast  Level Estimated
Sun 08:48:00 AM 60.3172 24.9633 37° Northeast  Level Estimated
Sun 08:49:00 AM 60.3172 24.9633 37° Northeast  Level Estimated
Sun 08:50:00 AM 60.3172 24.9633 37° Northeast  Level Estimated
Sun 08:51:00 AM 60.3172 24.9633 37° Northeast  Level Estimated
Sun 08:52:00 AM 60.3172 24.9633 37° Northeast  Level Estimated
Sun 08:53:00 AM 60.3172 24.9633 37° Northeast  Level Estimated
Sun 08:54:00 AM 60.3172 24.9633 37° Northeast  Level Estimated
Sun 08:55:00 AM 60.3172 24.9633 37° Northeast  Level Estimated
Sun 08:56:00 AM 60.3172 24.9633 37° Northeast  Level Estimated
Sun 08:57:00 AM 60.3172 24.9633 37° Northeast  Level Estimated
Sun 08:58:00 AM 60.3172 24.9633 37° Northeast  Level Estimated
Sun 08:59:00 AM 60.3172 24.9633 37° Northeast  Level Estimated
Sun 09:00:00 AM 60.3172 24.9633 37° Northeast  Level Estimated
Sun 09:01:00 AM 60.3172 24.9633 37° Northeast  Level Estimated
Sun 09:02:00 AM 60.3172 24.9633 37° Northeast  Level Estimated
Sun 09:03:00 AM 60.3172 24.9633 37° Northeast  Level Estimated
Sun 09:04:00 AM 60.3172 24.9633 37° Northeast  Level Estimated
Sun 09:05:00 AM 60.3172 24.9633 37° Northeast  Level Estimated
Sun 09:06:00 AM 60.3172 24.9633 37° Northeast  Level Estimated
Sun 09:07:00 AM 60.3172 24.9633 37° Northeast  Level Estimated
Sun 09:08:00 AM 60.3172 24.9633 37° Northeast  Level Estimated
Sun 09:09:00 AM 60.3172 24.9633 37° Northeast  Level Estimated
Sun 09:10:00 AM 60.3172 24.9633 37° Northeast  Level Estimated
Sun 09:11:00 AM 60.3172 24.9633 37° Northeast  Level Estimated

Login

Don't have an account? Register now (free) for customized features, flight alerts, and more!